sensor_id;sensor_type;location;lat;lon;timestamp;P1;durP1;ratioP1;P2;durP2;ratioP2
21354;SDS011;10835;50.148;19.760;2023-04-25T00:00:25;1.75;;;1.08;;
21354;SDS011;10835;50.148;19.760;2023-04-25T00:02:54;1.50;;;0.77;;
21354;SDS011;10835;50.148;19.760;2023-04-25T00:05:25;1.35;;;0.93;;
21354;SDS011;10835;50.148;19.760;2023-04-25T00:07:53;1.90;;;1.35;;
21354;SDS011;10835;50.148;19.760;2023-04-25T00:10:22;4.60;;;1.20;;
21354;SDS011;10835;50.148;19.760;2023-04-25T00:12:50;1.15;;;0.85;;
21354;SDS011;10835;50.148;19.760;2023-04-25T00:15:18;1.30;;;1.00;;
21354;SDS011;10835;50.148;19.760;2023-04-25T00:17:47;1.13;;;0.60;;
21354;SDS011;10835;50.148;19.760;2023-04-25T00:20:15;0.70;;;0.70;;
21354;SDS011;10835;50.148;19.760;2023-04-25T00:22:45;1.05;;;0.63;;
21354;SDS011;10835;50.148;19.760;2023-04-25T00:25:14;0.70;;;0.43;;
21354;SDS011;10835;50.148;19.760;2023-04-25T00:27:42;1.10;;;0.85;;
21354;SDS011;10835;50.148;19.760;2023-04-25T00:30:12;1.00;;;0.80;;
21354;SDS011;10835;50.148;19.760;2023-04-25T00:32:40;0.73;;;0.47;;
21354;SDS011;10835;50.148;19.760;2023-04-25T00:35:09;1.48;;;1.00;;
21354;SDS011;10835;50.148;19.760;2023-04-25T00:37:37;1.80;;;1.00;;
21354;SDS011;10835;50.148;19.760;2023-04-25T00:40:08;1.95;;;0.85;;
21354;SDS011;10835;50.148;19.760;2023-04-25T00:42:36;1.80;;;0.93;;
21354;SDS011;10835;50.148;19.760;2023-04-25T00:45:05;1.67;;;1.02;;
21354;SDS011;10835;50.148;19.760;2023-04-25T00:47:35;4.53;;;1.30;;
21354;SDS011;10835;50.148;19.760;2023-04-25T00:50:04;1.15;;;0.80;;
21354;SDS011;10835;50.148;19.760;2023-04-25T00:52:33;1.00;;;0.90;;
21354;SDS011;10835;50.148;19.760;2023-04-25T00:55:02;1.08;;;0.93;;
21354;SDS011;10835;50.148;19.760;2023-04-25T00:57:32;1.10;;;1.00;;
21354;SDS011;10835;50.148;19.760;2023-04-25T01:00:01;3.97;;;1.23;;
21354;SDS011;10835;50.148;19.760;2023-04-25T01:02:31;1.15;;;1.00;;
21354;SDS011;10835;50.148;19.760;2023-04-25T01:05:00;1.58;;;0.93;;
21354;SDS011;10835;50.148;19.760;2023-04-25T01:07:29;1.67;;;0.95;;
21354;SDS011;10835;50.148;19.760;2023-04-25T01:09:57;1.25;;;1.15;;
21354;SDS011;10835;50.148;19.760;2023-04-25T01:12:26;2.05;;;1.33;;
21354;SDS011;10835;50.148;19.760;2023-04-25T01:14:55;1.48;;;1.33;;
21354;SDS011;10835;50.148;19.760;2023-04-25T01:17:24;1.55;;;1.20;;
21354;SDS011;10835;50.148;19.760;2023-04-25T01:19:53;1.10;;;1.00;;
21354;SDS011;10835;50.148;19.760;2023-04-25T01:22:23;1.98;;;1.33;;
21354;SDS011;10835;50.148;19.760;2023-04-25T01:24:52;1.33;;;1.23;;
21354;SDS011;10835;50.148;19.760;2023-04-25T01:27:21;2.22;;;1.38;;
21354;SDS011;10835;50.148;19.760;2023-04-25T01:29:53;1.95;;;1.50;;
21354;SDS011;10835;50.148;19.760;2023-04-25T01:32:22;1.60;;;1.48;;
21354;SDS011;10835;50.148;19.760;2023-04-25T01:34:54;3.47;;;2.00;;
21354;SDS011;10835;50.148;19.760;2023-04-25T01:37:23;5.68;;;1.58;;
21354;SDS011;10835;50.148;19.760;2023-04-25T01:39:52;2.70;;;1.40;;
21354;SDS011;10835;50.148;19.760;2023-04-25T01:42:21;2.10;;;1.45;;
21354;SDS011;10835;50.148;19.760;2023-04-25T01:44:50;1.52;;;1.30;;
21354;SDS011;10835;50.148;19.760;2023-04-25T01:47:18;2.58;;;1.70;;
21354;SDS011;10835;50.148;19.760;2023-04-25T01:49:46;4.45;;;2.35;;
21354;SDS011;10835;50.148;19.760;2023-04-25T01:52:14;3.05;;;1.70;;
21354;SDS011;10835;50.148;19.760;2023-04-25T01:54:44;2.25;;;1.58;;
21354;SDS011;10835;50.148;19.760;2023-04-25T01:57:14;2.67;;;1.92;;
21354;SDS011;10835;50.148;19.760;2023-04-25T01:59:43;3.00;;;1.70;;
21354;SDS011;10835;50.148;19.760;2023-04-25T02:02:19;3.28;;;2.08;;
21354;SDS011;10835;50.148;19.760;2023-04-25T02:04:49;1.75;;;0.88;;
21354;SDS011;10835;50.148;19.760;2023-04-25T02:07:18;1.80;;;1.60;;
21354;SDS011;10835;50.148;19.760;2023-04-25T02:09:53;2.25;;;1.77;;
21354;SDS011;10835;50.148;19.760;2023-04-25T02:12:24;2.50;;;1.60;;
21354;SDS011;10835;50.148;19.760;2023-04-25T02:14:59;1.50;;;1.40;;
21354;SDS011;10835;50.148;19.760;2023-04-25T02:17:38;1.95;;;1.50;;
21354;SDS011;10835;50.148;19.760;2023-04-25T02:20:07;1.90;;;1.35;;
21354;SDS011;10835;50.148;19.760;2023-04-25T02:22:38;2.50;;;1.70;;
21354;SDS011;10835;50.148;19.760;2023-04-25T02:25:10;2.90;;;1.23;;
21354;SDS011;10835;50.148;19.760;2023-04-25T02:27:39;1.63;;;1.52;;
21354;SDS011;10835;50.148;19.760;2023-04-25T02:30:08;2.25;;;1.77;;
21354;SDS011;10835;50.148;19.760;2023-04-25T02:32:36;1.88;;;1.35;;
21354;SDS011;10835;50.148;19.760;2023-04-25T02:35:05;1.98;;;1.67;;
21354;SDS011;10835;50.148;19.760;2023-04-25T02:37:34;3.33;;;1.88;;
21354;SDS011;10835;50.148;19.760;2023-04-25T02:40:04;2.75;;;1.65;;
21354;SDS011;10835;50.148;19.760;2023-04-25T02:42:34;2.22;;;1.95;;
21354;SDS011;10835;50.148;19.760;2023-04-25T02:45:03;2.75;;;1.90;;
21354;SDS011;10835;50.148;19.760;2023-04-25T02:47:32;2.80;;;2.25;;
21354;SDS011;10835;50.148;19.760;2023-04-25T02:50:00;2.20;;;1.90;;
21354;SDS011;10835;50.148;19.760;2023-04-25T02:52:28;3.95;;;2.05;;
21354;SDS011;10835;50.148;19.760;2023-04-25T02:55:05;2.97;;;1.90;;
21354;SDS011;10835;50.148;19.760;2023-04-25T02:57:36;1.55;;;1.40;;
21354;SDS011;10835;50.148;19.760;2023-04-25T03:00:05;1.70;;;1.60;;
21354;SDS011;10835;50.148;19.760;2023-04-25T03:02:34;3.28;;;2.15;;
21354;SDS011;10835;50.148;19.760;2023-04-25T03:05:03;3.45;;;2.03;;
21354;SDS011;10835;50.148;19.760;2023-04-25T03:07:32;3.05;;;2.50;;
21354;SDS011;10835;50.148;19.760;2023-04-25T03:10:01;3.47;;;2.60;;
21354;SDS011;10835;50.148;19.760;2023-04-25T03:12:31;3.80;;;2.33;;
21354;SDS011;10835;50.148;19.760;2023-04-25T03:15:01;3.05;;;2.00;;
21354;SDS011;10835;50.148;19.760;2023-04-25T03:17:30;3.53;;;2.50;;
21354;SDS011;10835;50.148;19.760;2023-04-25T03:19:58;4.10;;;2.90;;
21354;SDS011;10835;50.148;19.760;2023-04-25T03:22:28;6.15;;;3.30;;
21354;SDS011;10835;50.148;19.760;2023-04-25T03:24:56;4.15;;;3.13;;
21354;SDS011;10835;50.148;19.760;2023-04-25T03:27:24;7.82;;;4.00;;
21354;SDS011;10835;50.148;19.760;2023-04-25T03:29:53;6.32;;;3.28;;
21354;SDS011;10835;50.148;19.760;2023-04-25T03:32:22;6.78;;;3.35;;
21354;SDS011;10835;50.148;19.760;2023-04-25T03:34:51;4.97;;;3.45;;
21354;SDS011;10835;50.148;19.760;2023-04-25T03:37:19;4.28;;;3.25;;
21354;SDS011;10835;50.148;19.760;2023-04-25T03:39:47;6.32;;;3.38;;
21354;SDS011;10835;50.148;19.760;2023-04-25T03:42:16;17.70;;;5.78;;
21354;SDS011;10835;50.148;19.760;2023-04-25T03:44:45;6.68;;;4.15;;
21354;SDS011;10835;50.148;19.760;2023-04-25T03:47:13;6.38;;;4.32;;
21354;SDS011;10835;50.148;19.760;2023-04-25T03:49:43;5.90;;;3.50;;
21354;SDS011;10835;50.148;19.760;2023-04-25T03:52:11;5.20;;;3.47;;
21354;SDS011;10835;50.148;19.760;2023-04-25T03:54:40;6.78;;;3.10;;
21354;SDS011;10835;50.148;19.760;2023-04-25T03:57:12;3.22;;;2.70;;
21354;SDS011;10835;50.148;19.760;2023-04-25T03:59:43;6.20;;;3.17;;
21354;SDS011;10835;50.148;19.760;2023-04-25T04:02:13;4.68;;;3.30;;
21354;SDS011;10835;50.148;19.760;2023-04-25T04:04:43;5.97;;;3.42;;
21354;SDS011;10835;50.148;19.760;2023-04-25T04:07:13;4.97;;;3.33;;
21354;SDS011;10835;50.148;19.760;2023-04-25T04:09:44;2.92;;;2.45;;
21354;SDS011;10835;50.148;19.760;2023-04-25T04:12:19;4.53;;;3.40;;
21354;SDS011;10835;50.148;19.760;2023-04-25T04:14:47;3.95;;;2.58;;
21354;SDS011;10835;50.148;19.760;2023-04-25T04:17:15;18.95;;;8.35;;
21354;SDS011;10835;50.148;19.760;2023-04-25T04:19:45;13.32;;;5.15;;
21354;SDS011;10835;50.148;19.760;2023-04-25T04:22:17;9.98;;;3.70;;
21354;SDS011;10835;50.148;19.760;2023-04-25T04:24:46;7.82;;;4.78;;
21354;SDS011;10835;50.148;19.760;2023-04-25T04:27:22;10.02;;;5.25;;
21354;SDS011;10835;50.148;19.760;2023-04-25T04:30:09;11.60;;;5.68;;
21354;SDS011;10835;50.148;19.760;2023-04-25T04:32:50;8.88;;;4.68;;
21354;SDS011;10835;50.148;19.760;2023-04-25T04:35:21;8.18;;;4.35;;
21354;SDS011;10835;50.148;19.760;2023-04-25T04:37:51;9.02;;;5.43;;
21354;SDS011;10835;50.148;19.760;2023-04-25T04:40:20;8.98;;;4.53;;
21354;SDS011;10835;50.148;19.760;2023-04-25T04:43:18;5.28;;;3.60;;
21354;SDS011;10835;50.148;19.760;2023-04-25T04:46:07;12.60;;;5.13;;
21354;SDS011;10835;50.148;19.760;2023-04-25T04:48:55;10.27;;;3.53;;
21354;SDS011;10835;50.148;19.760;2023-04-25T04:51:53;9.45;;;4.65;;
21354;SDS011;10835;50.148;19.760;2023-04-25T04:54:43;6.15;;;3.60;;
21354;SDS011;10835;50.148;19.760;2023-04-25T04:57:24;8.02;;;3.70;;
21354;SDS011;10835;50.148;19.760;2023-04-25T05:00:08;5.57;;;3.20;;
21354;SDS011;10835;50.148;19.760;2023-04-25T05:02:41;9.63;;;4.20;;
21354;SDS011;10835;50.148;19.760;2023-04-25T05:05:29;13.15;;;4.78;;
21354;SDS011;10835;50.148;19.760;2023-04-25T05:08:13;14.68;;;4.53;;
21354;SDS011;10835;50.148;19.760;2023-04-25T05:11:04;8.48;;;3.42;;
21354;SDS011;10835;50.148;19.760;2023-04-25T05:13:38;5.28;;;2.35;;
21354;SDS011;10835;50.148;19.760;2023-04-25T05:16:24;5.47;;;3.10;;
21354;SDS011;10835;50.148;19.760;2023-04-25T05:19:09;3.45;;;2.28;;
21354;SDS011;10835;50.148;19.760;2023-04-25T05:21:52;2.63;;;2.00;;
21354;SDS011;10835;50.148;19.760;2023-04-25T05:24:47;2.88;;;2.15;;
21354;SDS011;10835;50.148;19.760;2023-04-25T05:27:32;10.07;;;2.67;;
21354;SDS011;10835;50.148;19.760;2023-04-25T05:30:17;6.85;;;3.05;;
21354;SDS011;10835;50.148;19.760;2023-04-25T05:33:05;3.08;;;1.83;;
21354;SDS011;10835;50.148;19.760;2023-04-25T05:35:34;4.95;;;2.75;;
21354;SDS011;10835;50.148;19.760;2023-04-25T05:38:02;7.90;;;2.92;;
21354;SDS011;10835;50.148;19.760;2023-04-25T05:40:52;5.45;;;2.50;;
21354;SDS011;10835;50.148;19.760;2023-04-25T05:43:40;4.15;;;2.10;;
21354;SDS011;10835;50.148;19.760;2023-04-25T05:46:24;3.72;;;2.40;;
21354;SDS011;10835;50.148;19.760;2023-04-25T05:49:25;6.03;;;2.78;;
21354;SDS011;10835;50.148;19.760;2023-04-25T05:52:17;3.70;;;1.90;;
21354;SDS011;10835;50.148;19.760;2023-04-25T05:54:58;3.40;;;2.35;;
21354;SDS011;10835;50.148;19.760;2023-04-25T05:57:27;6.57;;;1.92;;
21354;SDS011;10835;50.148;19.760;2023-04-25T05:59:56;3.95;;;2.17;;
21354;SDS011;10835;50.148;19.760;2023-04-25T06:02:38;4.18;;;2.20;;
21354;SDS011;10835;50.148;19.760;2023-04-25T06:05:09;7.28;;;3.00;;
21354;SDS011;10835;50.148;19.760;2023-04-25T06:07:37;7.72;;;2.55;;
21354;SDS011;10835;50.148;19.760;2023-04-25T06:10:06;6.32;;;2.45;;
21354;SDS011;10835;50.148;19.760;2023-04-25T06:12:37;3.80;;;2.38;;
21354;SDS011;10835;50.148;19.760;2023-04-25T06:15:11;6.80;;;2.28;;
21354;SDS011;10835;50.148;19.760;2023-04-25T06:17:53;3.90;;;2.40;;
21354;SDS011;10835;50.148;19.760;2023-04-25T06:20:22;3.25;;;2.25;;
21354;SDS011;10835;50.148;19.760;2023-04-25T06:22:53;9.27;;;1.27;;
21354;SDS011;10835;50.148;19.760;2023-04-25T06:25:43;3.05;;;1.85;;
21354;SDS011;10835;50.148;19.760;2023-04-25T06:28:13;2.88;;;2.15;;
21354;SDS011;10835;50.148;19.760;2023-04-25T06:30:44;3.35;;;2.47;;
21354;SDS011;10835;50.148;19.760;2023-04-25T06:33:17;2.67;;;2.17;;
21354;SDS011;10835;50.148;19.760;2023-04-25T06:35:46;2.97;;;2.10;;
21354;SDS011;10835;50.148;19.760;2023-04-25T06:38:18;3.50;;;2.25;;
21354;SDS011;10835;50.148;19.760;2023-04-25T06:40:49;3.28;;;1.95;;
21354;SDS011;10835;50.148;19.760;2023-04-25T06:43:20;4.25;;;2.50;;
21354;SDS011;10835;50.148;19.760;2023-04-25T06:46:04;4.20;;;2.05;;
21354;SDS011;10835;50.148;19.760;2023-04-25T06:48:39;2.97;;;1.65;;
21354;SDS011;10835;50.148;19.760;2023-04-25T06:51:08;2.50;;;2.30;;
21354;SDS011;10835;50.148;19.760;2023-04-25T06:53:37;5.28;;;2.13;;
21354;SDS011;10835;50.148;19.760;2023-04-25T06:56:09;2.90;;;2.10;;
21354;SDS011;10835;50.148;19.760;2023-04-25T06:58:50;4.95;;;1.88;;
21354;SDS011;10835;50.148;19.760;2023-04-25T07:01:39;5.28;;;2.13;;
21354;SDS011;10835;50.148;19.760;2023-04-25T07:04:13;2.88;;;2.40;;
21354;SDS011;10835;50.148;19.760;2023-04-25T07:06:49;2.03;;;1.70;;
21354;SDS011;10835;50.148;19.760;2023-04-25T07:09:23;2.83;;;1.70;;
21354;SDS011;10835;50.148;19.760;2023-04-25T07:11:52;2.25;;;1.67;;
21354;SDS011;10835;50.148;19.760;2023-04-25T07:14:21;2.95;;;1.98;;
21354;SDS011;10835;50.148;19.760;2023-04-25T07:16:50;3.15;;;2.33;;
21354;SDS011;10835;50.148;19.760;2023-04-25T07:19:18;1.98;;;1.60;;
21354;SDS011;10835;50.148;19.760;2023-04-25T07:21:47;2.55;;;1.95;;
21354;SDS011;10835;50.148;19.760;2023-04-25T07:24:20;2.50;;;2.05;;
21354;SDS011;10835;50.148;19.760;2023-04-25T07:26:52;2.80;;;2.17;;
21354;SDS011;10835;50.148;19.760;2023-04-25T07:29:39;4.63;;;2.97;;
21354;SDS011;10835;50.148;19.760;2023-04-25T07:32:08;4.40;;;2.00;;
21354;SDS011;10835;50.148;19.760;2023-04-25T07:34:41;2.78;;;2.08;;
21354;SDS011;10835;50.148;19.760;2023-04-25T07:37:10;4.28;;;2.50;;
21354;SDS011;10835;50.148;19.760;2023-04-25T07:39:52;2.88;;;1.90;;
21354;SDS011;10835;50.148;19.760;2023-04-25T07:42:20;3.97;;;2.20;;
21354;SDS011;10835;50.148;19.760;2023-04-25T07:44:50;4.40;;;2.50;;
21354;SDS011;10835;50.148;19.760;2023-04-25T07:47:18;2.78;;;1.77;;
21354;SDS011;10835;50.148;19.760;2023-04-25T07:49:46;3.45;;;2.80;;
21354;SDS011;10835;50.148;19.760;2023-04-25T07:52:15;6.97;;;3.97;;
21354;SDS011;10835;50.148;19.760;2023-04-25T07:54:49;5.35;;;3.60;;
21354;SDS011;10835;50.148;19.760;2023-04-25T07:57:24;4.07;;;2.63;;
21354;SDS011;10835;50.148;19.760;2023-04-25T07:59:55;6.57;;;2.38;;
21354;SDS011;10835;50.148;19.760;2023-04-25T08:02:23;3.75;;;2.88;;
21354;SDS011;10835;50.148;19.760;2023-04-25T08:04:55;2.50;;;1.95;;
21354;SDS011;10835;50.148;19.760;2023-04-25T08:07:23;5.25;;;2.88;;
21354;SDS011;10835;50.148;19.760;2023-04-25T08:09:54;3.65;;;2.35;;
21354;SDS011;10835;50.148;19.760;2023-04-25T08:12:28;2.78;;;2.08;;
21354;SDS011;10835;50.148;19.760;2023-04-25T08:14:58;3.55;;;2.42;;
21354;SDS011;10835;50.148;19.760;2023-04-25T08:17:31;2.45;;;2.15;;
21354;SDS011;10835;50.148;19.760;2023-04-25T08:19:59;3.35;;;2.63;;
21354;SDS011;10835;50.148;19.760;2023-04-25T08:22:33;3.38;;;2.17;;
21354;SDS011;10835;50.148;19.760;2023-04-25T08:25:25;3.55;;;1.65;;
21354;SDS011;10835;50.148;19.760;2023-04-25T08:27:54;2.55;;;1.98;;
21354;SDS011;10835;50.148;19.760;2023-04-25T08:30:24;3.25;;;2.35;;
21354;SDS011;10835;50.148;19.760;2023-04-25T08:32:53;2.92;;;1.98;;
21354;SDS011;10835;50.148;19.760;2023-04-25T08:35:49;6.35;;;4.53;;
21354;SDS011;10835;50.148;19.760;2023-04-25T08:38:18;3.92;;;2.40;;
21354;SDS011;10835;50.148;19.760;2023-04-25T08:40:48;4.72;;;2.17;;
21354;SDS011;10835;50.148;19.760;2023-04-25T08:43:19;3.10;;;2.50;;
21354;SDS011;10835;50.148;19.760;2023-04-25T08:45:49;3.40;;;3.00;;
21354;SDS011;10835;50.148;19.760;2023-04-25T08:48:34;4.30;;;2.33;;
21354;SDS011;10835;50.148;19.760;2023-04-25T08:51:04;2.53;;;2.33;;
21354;SDS011;10835;50.148;19.760;2023-04-25T08:53:35;2.95;;;2.10;;
21354;SDS011;10835;50.148;19.760;2023-04-25T08:56:04;3.38;;;2.30;;
21354;SDS011;10835;50.148;19.760;2023-04-25T08:58:35;3.05;;;2.25;;
21354;SDS011;10835;50.148;19.760;2023-04-25T09:01:06;3.88;;;2.20;;
21354;SDS011;10835;50.148;19.760;2023-04-25T09:03:43;2.65;;;2.20;;
21354;SDS011;10835;50.148;19.760;2023-04-25T09:06:14;3.25;;;2.35;;
21354;SDS011;10835;50.148;19.760;2023-04-25T09:08:43;2.40;;;1.90;;
21354;SDS011;10835;50.148;19.760;2023-04-25T09:11:17;2.55;;;2.00;;
21354;SDS011;10835;50.148;19.760;2023-04-25T09:13:50;2.83;;;2.22;;
21354;SDS011;10835;50.148;19.760;2023-04-25T09:17:00;3.00;;;2.38;;
21354;SDS011;10835;50.148;19.760;2023-04-25T09:19:42;2.42;;;2.22;;
21354;SDS011;10835;50.148;19.760;2023-04-25T09:22:30;2.17;;;1.95;;
21354;SDS011;10835;50.148;19.760;2023-04-25T09:24:59;2.50;;;1.80;;
21354;SDS011;10835;50.148;19.760;2023-04-25T09:27:33;6.30;;;1.90;;
21354;SDS011;10835;50.148;19.760;2023-04-25T09:30:10;2.65;;;1.98;;
21354;SDS011;10835;50.148;19.760;2023-04-25T09:32:55;3.53;;;2.50;;
21354;SDS011;10835;50.148;19.760;2023-04-25T09:35:25;4.35;;;2.00;;
21354;SDS011;10835;50.148;19.760;2023-04-25T09:37:56;3.10;;;1.73;;
21354;SDS011;10835;50.148;19.760;2023-04-25T09:40:45;2.53;;;1.75;;
21354;SDS011;10835;50.148;19.760;2023-04-25T09:43:24;4.57;;;2.72;;
21354;SDS011;10835;50.148;19.760;2023-04-25T09:45:54;2.55;;;2.00;;
21354;SDS011;10835;50.148;19.760;2023-04-25T09:48:28;2.97;;;2.17;;
21354;SDS011;10835;50.148;19.760;2023-04-25T09:51:05;5.32;;;2.70;;
21354;SDS011;10835;50.148;19.760;2023-04-25T09:53:35;2.90;;;2.13;;
21354;SDS011;10835;50.148;19.760;2023-04-25T09:56:23;2.88;;;2.08;;
21354;SDS011;10835;50.148;19.760;2023-04-25T09:58:54;2.53;;;2.33;;
21354;SDS011;10835;50.148;19.760;2023-04-25T10:01:26;2.00;;;1.70;;
21354;SDS011;10835;50.148;19.760;2023-04-25T10:04:06;3.40;;;2.30;;
21354;SDS011;10835;50.148;19.760;2023-04-25T10:06:48;2.75;;;2.20;;
21354;SDS011;10835;50.148;19.760;2023-04-25T10:09:19;2.97;;;2.10;;
21354;SDS011;10835;50.148;19.760;2023-04-25T10:11:49;2.85;;;2.42;;
21354;SDS011;10835;50.148;19.760;2023-04-25T10:14:18;3.72;;;2.50;;
21354;SDS011;10835;50.148;19.760;2023-04-25T10:16:47;3.10;;;2.22;;
21354;SDS011;10835;50.148;19.760;2023-04-25T10:19:17;4.60;;;2.78;;
21354;SDS011;10835;50.148;19.760;2023-04-25T10:21:48;4.60;;;2.70;;
21354;SDS011;10835;50.148;19.760;2023-04-25T10:24:19;4.60;;;2.22;;
21354;SDS011;10835;50.148;19.760;2023-04-25T10:26:48;2.97;;;2.40;;
21354;SDS011;10835;50.148;19.760;2023-04-25T10:29:24;3.17;;;2.75;;
21354;SDS011;10835;50.148;19.760;2023-04-25T10:31:53;3.70;;;2.50;;
21354;SDS011;10835;50.148;19.760;2023-04-25T10:34:37;2.78;;;2.00;;
21354;SDS011;10835;50.148;19.760;2023-04-25T10:37:10;2.55;;;2.15;;
21354;SDS011;10835;50.148;19.760;2023-04-25T10:39:39;4.45;;;3.00;;
21354;SDS011;10835;50.148;19.760;2023-04-25T10:42:08;2.60;;;2.40;;
21354;SDS011;10835;50.148;19.760;2023-04-25T10:44:37;2.35;;;1.75;;
21354;SDS011;10835;50.148;19.760;2023-04-25T10:47:06;2.20;;;2.00;;
21354;SDS011;10835;50.148;19.760;2023-04-25T10:49:37;3.22;;;2.35;;
21354;SDS011;10835;50.148;19.760;2023-04-25T10:52:16;3.42;;;2.33;;
21354;SDS011;10835;50.148;19.760;2023-04-25T10:54:46;3.03;;;1.67;;
21354;SDS011;10835;50.148;19.760;2023-04-25T10:57:28;2.28;;;2.00;;
21354;SDS011;10835;50.148;19.760;2023-04-25T10:59:58;2.60;;;2.40;;
21354;SDS011;10835;50.148;19.760;2023-04-25T11:02:27;2.78;;;1.92;;
21354;SDS011;10835;50.148;19.760;2023-04-25T11:04:58;2.35;;;2.15;;
21354;SDS011;10835;50.148;19.760;2023-04-25T11:07:30;2.97;;;1.85;;
21354;SDS011;10835;50.148;19.760;2023-04-25T11:10:05;3.55;;;2.20;;
21354;SDS011;10835;50.148;19.760;2023-04-25T11:12:34;1.95;;;1.67;;
21354;SDS011;10835;50.148;19.760;2023-04-25T11:15:03;2.22;;;1.67;;
21354;SDS011;10835;50.148;19.760;2023-04-25T11:17:32;4.03;;;2.03;;
21354;SDS011;10835;50.148;19.760;2023-04-25T11:20:03;1.98;;;1.58;;
21354;SDS011;10835;50.148;19.760;2023-04-25T11:22:35;2.65;;;1.65;;
21354;SDS011;10835;50.148;19.760;2023-04-25T11:25:05;1.55;;;1.45;;
21354;SDS011;10835;50.148;19.760;2023-04-25T11:27:34;1.77;;;1.40;;
21354;SDS011;10835;50.148;19.760;2023-04-25T11:30:11;3.30;;;1.95;;
21354;SDS011;10835;50.148;19.760;2023-04-25T11:32:41;2.30;;;1.80;;
21354;SDS011;10835;50.148;19.760;2023-04-25T11:35:12;3.42;;;1.90;;
21354;SDS011;10835;50.148;19.760;2023-04-25T11:37:41;2.75;;;1.83;;
21354;SDS011;10835;50.148;19.760;2023-04-25T11:40:11;3.95;;;2.15;;
21354;SDS011;10835;50.148;19.760;2023-04-25T11:42:43;2.92;;;1.77;;
21354;SDS011;10835;50.148;19.760;2023-04-25T11:45:12;1.67;;;1.30;;
21354;SDS011;10835;50.148;19.760;2023-04-25T11:47:42;2.13;;;1.52;;
21354;SDS011;10835;50.148;19.760;2023-04-25T11:50:11;1.65;;;1.40;;
21354;SDS011;10835;50.148;19.760;2023-04-25T11:52:41;2.97;;;1.55;;
21354;SDS011;10835;50.148;19.760;2023-04-25T11:55:12;1.88;;;1.52;;
21354;SDS011;10835;50.148;19.760;2023-04-25T11:57:42;2.42;;;2.08;;
21354;SDS011;10835;50.148;19.760;2023-04-25T12:00:12;2.45;;;1.73;;
21354;SDS011;10835;50.148;19.760;2023-04-25T12:02:46;4.35;;;1.65;;
21354;SDS011;10835;50.148;19.760;2023-04-25T12:05:20;3.78;;;1.73;;
21354;SDS011;10835;50.148;19.760;2023-04-25T12:07:54;1.92;;;1.40;;
21354;SDS011;10835;50.148;19.760;2023-04-25T12:10:23;2.50;;;1.70;;
21354;SDS011;10835;50.148;19.760;2023-04-25T12:12:53;4.63;;;1.98;;
21354;SDS011;10835;50.148;19.760;2023-04-25T12:15:23;2.75;;;1.70;;
21354;SDS011;10835;50.148;19.760;2023-04-25T12:17:53;2.45;;;1.73;;
21354;SDS011;10835;50.148;19.760;2023-04-25T12:20:24;2.97;;;1.80;;
21354;SDS011;10835;50.148;19.760;2023-04-25T12:22:52;2.80;;;1.88;;
21354;SDS011;10835;50.148;19.760;2023-04-25T12:28:09;5.75;;;2.47;;
21354;SDS011;10835;50.148;19.760;2023-04-25T12:30:56;6.15;;;2.80;;
21354;SDS011;10835;50.148;19.760;2023-04-25T12:33:25;3.67;;;2.10;;
21354;SDS011;10835;50.148;19.760;2023-04-25T12:35:56;5.10;;;2.20;;
21354;SDS011;10835;50.148;19.760;2023-04-25T12:38:26;2.55;;;1.63;;
21354;SDS011;10835;50.148;19.760;2023-04-25T12:40:55;2.42;;;1.92;;
21354;SDS011;10835;50.148;19.760;2023-04-25T12:43:24;3.22;;;1.70;;
21354;SDS011;10835;50.148;19.760;2023-04-25T12:45:52;2.58;;;1.70;;
21354;SDS011;10835;50.148;19.760;2023-04-25T12:48:22;2.50;;;1.70;;
21354;SDS011;10835;50.148;19.760;2023-04-25T12:50:51;2.42;;;1.65;;
21354;SDS011;10835;50.148;19.760;2023-04-25T12:53:21;3.85;;;1.85;;
21354;SDS011;10835;50.148;19.760;2023-04-25T12:55:51;2.22;;;1.60;;
21354;SDS011;10835;50.148;19.760;2023-04-25T12:58:24;2.22;;;1.67;;
21354;SDS011;10835;50.148;19.760;2023-04-25T13:00:55;1.88;;;1.75;;
21354;SDS011;10835;50.148;19.760;2023-04-25T13:03:25;4.20;;;1.85;;
21354;SDS011;10835;50.148;19.760;2023-04-25T13:05:53;2.83;;;1.55;;
21354;SDS011;10835;50.148;19.760;2023-04-25T13:08:26;3.33;;;1.67;;
21354;SDS011;10835;50.148;19.760;2023-04-25T13:10:54;2.35;;;1.80;;
21354;SDS011;10835;50.148;19.760;2023-04-25T13:13:22;5.03;;;1.73;;
21354;SDS011;10835;50.148;19.760;2023-04-25T13:15:53;1.85;;;1.50;;
21354;SDS011;10835;50.148;19.760;2023-04-25T13:18:21;1.90;;;1.67;;
21354;SDS011;10835;50.148;19.760;2023-04-25T13:20:52;4.10;;;1.60;;
21354;SDS011;10835;50.148;19.760;2023-04-25T13:23:21;2.35;;;1.40;;
21354;SDS011;10835;50.148;19.760;2023-04-25T13:25:51;1.38;;;1.20;;
21354;SDS011;10835;50.148;19.760;2023-04-25T13:28:19;1.33;;;1.20;;
21354;SDS011;10835;50.148;19.760;2023-04-25T13:30:48;3.03;;;1.65;;
21354;SDS011;10835;50.148;19.760;2023-04-25T13:33:16;1.75;;;1.33;;
21354;SDS011;10835;50.148;19.760;2023-04-25T13:35:44;2.65;;;1.63;;
21354;SDS011;10835;50.148;19.760;2023-04-25T13:38:13;1.95;;;1.48;;
21354;SDS011;10835;50.148;19.760;2023-04-25T13:40:41;1.58;;;1.20;;
21354;SDS011;10835;50.148;19.760;2023-04-25T13:43:11;2.50;;;1.25;;
21354;SDS011;10835;50.148;19.760;2023-04-25T13:45:39;2.90;;;1.30;;
21354;SDS011;10835;50.148;19.760;2023-04-25T13:48:07;4.07;;;1.25;;
21354;SDS011;10835;50.148;19.760;2023-04-25T13:50:36;2.97;;;1.20;;
21354;SDS011;10835;50.148;19.760;2023-04-25T13:53:04;3.00;;;1.08;;
21354;SDS011;10835;50.148;19.760;2023-04-25T13:55:33;1.35;;;1.13;;
21354;SDS011;10835;50.148;19.760;2023-04-25T13:58:02;3.22;;;1.38;;
21354;SDS011;10835;50.148;19.760;2023-04-25T14:00:36;2.47;;;1.17;;
21354;SDS011;10835;50.148;19.760;2023-04-25T14:03:06;4.60;;;1.88;;
21354;SDS011;10835;50.148;19.760;2023-04-25T14:05:35;3.20;;;1.27;;
21354;SDS011;10835;50.148;19.760;2023-04-25T14:08:05;3.53;;;1.80;;
21354;SDS011;10835;50.148;19.760;2023-04-25T14:10:34;4.22;;;1.23;;
21354;SDS011;10835;50.148;19.760;2023-04-25T14:13:03;2.90;;;1.40;;
21354;SDS011;10835;50.148;19.760;2023-04-25T14:15:36;1.75;;;1.25;;
21354;SDS011;10835;50.148;19.760;2023-04-25T14:18:07;2.45;;;1.75;;
21354;SDS011;10835;50.148;19.760;2023-04-25T14:20:35;3.00;;;1.20;;
21354;SDS011;10835;50.148;19.760;2023-04-25T14:23:04;3.65;;;1.27;;
21354;SDS011;10835;50.148;19.760;2023-04-25T14:25:32;3.70;;;1.70;;
21354;SDS011;10835;50.148;19.760;2023-04-25T14:28:02;1.40;;;1.25;;
21354;SDS011;10835;50.148;19.760;2023-04-25T14:30:30;2.55;;;1.48;;
21354;SDS011;10835;50.148;19.760;2023-04-25T14:32:59;3.45;;;1.42;;
21354;SDS011;10835;50.148;19.760;2023-04-25T14:35:28;1.70;;;1.40;;
21354;SDS011;10835;50.148;19.760;2023-04-25T14:37:56;3.15;;;1.35;;
21354;SDS011;10835;50.148;19.760;2023-04-25T14:40:25;2.67;;;1.73;;
21354;SDS011;10835;50.148;19.760;2023-04-25T14:42:54;2.97;;;1.65;;
21354;SDS011;10835;50.148;19.760;2023-04-25T14:45:23;3.67;;;1.85;;
21354;SDS011;10835;50.148;19.760;2023-04-25T14:47:52;4.95;;;1.77;;
21354;SDS011;10835;50.148;19.760;2023-04-25T14:50:21;8.35;;;3.55;;
21354;SDS011;10835;50.148;19.760;2023-04-25T14:52:50;2.78;;;1.50;;
21354;SDS011;10835;50.148;19.760;2023-04-25T14:55:19;3.55;;;2.22;;
21354;SDS011;10835;50.148;19.760;2023-04-25T14:57:47;2.85;;;1.70;;
21354;SDS011;10835;50.148;19.760;2023-04-25T15:00:19;7.85;;;1.35;;
21354;SDS011;10835;50.148;19.760;2023-04-25T15:02:48;4.75;;;2.63;;
21354;SDS011;10835;50.148;19.760;2023-04-25T15:05:17;3.53;;;1.63;;